createdAt,value
2023-02-08T00:00:49.779Z,19.30
2023-02-08T00:03:17.510Z,17.50
2023-02-08T00:05:45.083Z,17.13
2023-02-08T00:08:14.062Z,16.00
2023-02-08T00:10:41.996Z,15.33
2023-02-08T00:13:09.895Z,17.10
2023-02-08T00:15:42.281Z,16.67
2023-02-08T00:18:10.261Z,16.40
2023-02-08T00:20:39.397Z,13.73
2023-02-08T00:23:07.310Z,15.17
2023-02-08T00:25:36.529Z,14.90
2023-02-08T00:28:04.885Z,15.30
2023-02-08T00:30:32.600Z,14.70
2023-02-08T00:33:01.233Z,14.80
2023-02-08T00:35:29.206Z,14.87
2023-02-08T00:37:56.841Z,14.57
2023-02-08T00:40:24.604Z,15.03
2023-02-08T00:42:53.624Z,14.23
2023-02-08T00:45:21.261Z,14.27
2023-02-08T00:47:48.788Z,14.10
2023-02-08T00:50:16.426Z,15.33
2023-02-08T00:52:43.933Z,14.27
2023-02-08T00:55:11.453Z,14.37
2023-02-08T00:57:38.967Z,11.97
2023-02-08T01:00:09.462Z,12.90
2023-02-08T01:02:38.636Z,12.67
2023-02-08T01:05:07.089Z,12.73
2023-02-08T01:07:34.909Z,13.23
2023-02-08T01:10:02.420Z,12.90
2023-02-08T01:12:29.968Z,13.30
2023-02-08T01:14:57.517Z,13.43
2023-02-08T01:17:26.413Z,13.40
2023-02-08T01:19:54.517Z,12.70
2023-02-08T01:22:22.045Z,14.17
2023-02-08T01:24:50.061Z,12.60
2023-02-08T01:27:17.773Z,14.17
2023-02-08T01:29:45.455Z,13.70
2023-02-08T01:32:12.974Z,13.30
2023-02-08T01:34:44.041Z,11.97
2023-02-08T01:37:11.788Z,12.77
2023-02-08T01:39:39.299Z,13.97
2023-02-08T01:42:06.840Z,12.87
2023-02-08T01:45:17.704Z,13.03
2023-02-08T01:47:46.415Z,12.23
2023-02-08T01:50:16.788Z,14.27
2023-02-08T01:52:44.681Z,13.90
2023-02-08T01:55:16.492Z,12.10
2023-02-08T01:57:44.296Z,13.20
2023-02-08T02:00:16.242Z,13.57
2023-02-08T02:02:45.616Z,12.40
2023-02-08T02:05:14.773Z,13.53
2023-02-08T02:07:42.602Z,13.87
2023-02-08T02:10:12.077Z,14.27
2023-02-08T02:12:40.632Z,12.67
2023-02-08T02:15:09.491Z,13.33
2023-02-08T02:17:37.487Z,13.03
2023-02-08T02:20:10.315Z,13.30
2023-02-08T02:23:07.727Z,13.67
2023-02-08T02:25:59.694Z,13.60
2023-02-08T02:28:57.041Z,12.43
2023-02-08T02:31:46.255Z,12.93
2023-02-08T02:34:16.673Z,15.07
2023-02-08T02:36:49.349Z,13.33
2023-02-08T02:39:21.607Z,13.23
2023-02-08T02:42:13.620Z,13.97
2023-02-08T02:44:49.820Z,14.17
2023-02-08T02:47:23.142Z,13.80
2023-02-08T02:49:53.654Z,14.00
2023-02-08T02:52:27.803Z,13.43
2023-02-08T02:54:59.003Z,13.53
2023-02-08T02:57:30.378Z,13.93
2023-02-08T02:59:58.871Z,13.53
2023-02-08T03:02:28.389Z,13.47
2023-02-08T03:04:57.021Z,13.07
2023-02-08T03:07:42.746Z,13.80
2023-02-08T03:10:19.509Z,12.73
2023-02-08T03:12:56.383Z,13.77
2023-02-08T03:15:30.171Z,13.30
2023-02-08T03:18:06.419Z,13.00
2023-02-08T03:20:38.062Z,12.83
2023-02-08T03:23:10.694Z,13.53
2023-02-08T03:25:46.788Z,13.87
2023-02-08T03:28:20.364Z,14.33
2023-02-08T03:30:53.240Z,13.17
2023-02-08T03:33:25.765Z,14.43
2023-02-08T03:35:57.446Z,12.57
2023-02-08T03:38:28.678Z,12.77
2023-02-08T03:40:57.265Z,13.00
2023-02-08T03:43:36.896Z,14.80
2023-02-08T03:46:08.889Z,13.30
2023-02-08T03:48:40.426Z,13.40
2023-02-08T03:51:09.037Z,13.37
2023-02-08T03:53:40.379Z,12.60
2023-02-08T03:56:12.056Z,14.77
2023-02-08T03:58:41.771Z,15.07
2023-02-08T04:01:16.004Z,14.17
2023-02-08T04:03:46.214Z,14.77
2023-02-08T04:06:14.919Z,14.53
2023-02-08T04:08:42.450Z,18.58
2023-02-08T04:11:09.998Z,15.80
2023-02-08T04:13:37.892Z,14.33
2023-02-08T04:16:05.735Z,14.00
2023-02-08T04:18:33.313Z,12.70
2023-02-08T04:21:02.217Z,13.67
2023-02-08T04:23:29.738Z,13.73
2023-02-08T04:25:57.280Z,13.43
2023-02-08T04:28:24.836Z,13.50
2023-02-08T04:30:52.432Z,12.37
2023-02-08T04:33:20.221Z,14.57
2023-02-08T04:35:47.763Z,13.67
2023-02-08T04:38:16.655Z,13.70
2023-02-08T04:40:44.166Z,11.97
2023-02-08T04:43:11.688Z,12.60
2023-02-08T04:45:39.251Z,15.00
2023-02-08T04:48:07.452Z,13.37
2023-02-08T04:50:35.614Z,14.00
2023-02-08T04:53:03.127Z,13.57
2023-02-08T04:55:32.070Z,11.57
2023-02-08T04:57:59.735Z,17.05
2023-02-08T05:00:27.428Z,15.13
2023-02-08T05:02:55.428Z,13.33
2023-02-08T05:05:23.117Z,14.07
2023-02-08T05:07:50.652Z,13.87
2023-02-08T05:10:18.585Z,12.30
2023-02-08T05:12:47.499Z,14.47
2023-02-08T05:15:15.063Z,14.57
2023-02-08T05:17:42.586Z,14.30
2023-02-08T05:20:11.616Z,14.83
2023-02-08T05:22:39.156Z,14.07
2023-02-08T05:25:08.028Z,13.03
2023-02-08T05:27:36.351Z,14.17
2023-02-08T05:30:06.440Z,13.17
2023-02-08T05:32:34.007Z,14.63
2023-02-08T05:35:01.641Z,15.73
2023-02-08T05:37:29.155Z,13.87
2023-02-08T05:39:56.716Z,13.97
2023-02-08T05:42:24.743Z,13.43
2023-02-08T05:44:52.490Z,13.97
2023-02-08T05:47:21.908Z,13.50
2023-02-08T05:49:49.479Z,13.03
2023-02-08T05:52:17.005Z,14.67
2023-02-08T05:54:44.541Z,13.80
2023-02-08T05:57:12.079Z,14.67
2023-02-08T05:59:39.642Z,14.47
2023-02-08T06:02:07.342Z,14.40
2023-02-08T06:04:38.718Z,14.90
2023-02-08T06:07:09.376Z,14.57
2023-02-08T06:09:36.864Z,13.83
2023-02-08T06:12:04.526Z,13.67
2023-02-08T06:14:32.066Z,14.53
2023-02-08T06:16:59.691Z,14.67
2023-02-08T06:19:27.246Z,14.17
2023-02-08T06:21:57.149Z,14.83
2023-02-08T06:24:25.252Z,14.80
2023-02-08T06:26:52.912Z,16.50
2023-02-08T06:29:21.150Z,18.07
2023-02-08T06:31:49.006Z,16.03
2023-02-08T06:34:16.633Z,19.87
2023-02-08T06:36:45.739Z,21.20
2023-02-08T06:39:14.646Z,19.30
2023-02-08T06:41:42.153Z,16.30
2023-02-08T06:44:09.763Z,14.20
2023-02-08T06:46:37.290Z,16.20
2023-02-08T06:49:04.978Z,15.00
2023-02-08T06:51:32.517Z,14.57
2023-02-08T06:54:00.098Z,15.27
2023-02-08T06:56:28.982Z,16.10
2023-02-08T06:58:57.280Z,14.57
2023-02-08T07:01:24.877Z,14.87
2023-02-08T07:03:52.515Z,14.70
2023-02-08T07:06:21.274Z,14.77
2023-02-08T07:08:49.285Z,16.23
2023-02-08T07:11:19.690Z,16.67
2023-02-08T07:13:49.039Z,14.60
2023-02-08T07:16:16.912Z,14.97
2023-02-08T07:18:44.465Z,15.23
2023-02-08T07:21:12.413Z,15.80
2023-02-08T07:23:40.744Z,15.83
2023-02-08T07:26:10.488Z,15.30
2023-02-08T07:28:38.026Z,15.60
2023-02-08T07:31:07.883Z,16.53
2023-02-08T07:33:35.415Z,17.50
2023-02-08T07:36:05.226Z,16.07
2023-02-08T07:38:33.717Z,16.87
2023-02-08T07:41:02.308Z,17.83
2023-02-08T07:43:29.902Z,18.33
2023-02-08T07:45:57.439Z,18.13
2023-02-08T07:48:26.373Z,16.77
2023-02-08T07:50:53.875Z,17.53
2023-02-08T07:53:21.412Z,17.17
2023-02-08T07:55:48.988Z,16.27
2023-02-08T07:58:16.645Z,16.77
2023-02-08T08:00:44.158Z,16.97
2023-02-08T08:03:11.745Z,15.67
2023-02-08T08:05:42.457Z,18.23
2023-02-08T08:08:10.936Z,17.60
2023-02-08T08:10:38.648Z,19.07
2023-02-08T08:13:06.615Z,17.33
2023-02-08T08:15:34.142Z,18.57
2023-02-08T08:18:01.641Z,17.07
2023-02-08T08:20:29.176Z,17.07
2023-02-08T08:22:58.719Z,17.20
2023-02-08T08:25:26.819Z,18.17
2023-02-08T08:27:54.617Z,20.53
2023-02-08T08:30:22.311Z,18.27
2023-02-08T08:32:49.907Z,21.00
2023-02-08T08:35:17.453Z,18.67
2023-02-08T08:37:44.991Z,21.37
2023-02-08T08:40:13.933Z,18.30
2023-02-08T08:42:41.488Z,18.27
2023-02-08T08:45:10.385Z,17.90
2023-02-08T08:47:38.024Z,18.57
2023-02-08T08:50:06.080Z,18.97
2023-02-08T08:52:33.556Z,17.70
2023-02-08T08:55:01.109Z,18.33
2023-02-08T08:57:29.924Z,18.43
2023-02-08T08:59:57.462Z,17.80
2023-02-08T09:02:25.070Z,19.47
2023-02-08T09:04:52.591Z,20.30
2023-02-08T09:07:20.093Z,18.63
2023-02-08T09:09:48.405Z,20.23
2023-02-08T09:12:16.291Z,20.07
2023-02-08T09:14:45.858Z,19.43
2023-02-08T09:17:13.618Z,19.30
2023-02-08T09:19:42.509Z,18.47
2023-02-08T09:22:10.069Z,19.20
2023-02-08T09:24:37.633Z,18.60
2023-02-08T09:27:05.387Z,18.03
2023-02-08T09:29:33.684Z,18.57
2023-02-08T09:32:02.535Z,18.27
2023-02-08T09:34:30.273Z,17.77
2023-02-08T09:36:57.972Z,18.57
2023-02-08T09:39:26.301Z,18.33
2023-02-08T09:42:06.395Z,18.70
2023-02-08T09:44:40.183Z,18.33
2023-02-08T09:47:14.899Z,18.07
2023-02-08T09:49:47.834Z,17.13
2023-02-08T09:52:17.732Z,16.63
2023-02-08T09:54:47.952Z,18.10
2023-02-08T09:57:18.573Z,17.63
2023-02-08T09:59:51.056Z,19.37
2023-02-08T10:02:23.879Z,18.13
2023-02-08T10:04:57.647Z,19.33
2023-02-08T10:07:26.531Z,18.23
2023-02-08T10:09:54.866Z,19.33
2023-02-08T10:12:31.001Z,18.83
2023-02-08T10:15:05.116Z,19.43
2023-02-08T10:17:50.606Z,18.60
2023-02-08T10:20:34.196Z,17.97
2023-02-08T10:23:09.115Z,18.83
2023-02-08T10:25:51.605Z,17.90
2023-02-08T10:28:27.675Z,19.10
2023-02-08T10:30:59.018Z,19.00
2023-02-08T10:33:32.644Z,19.53
2023-02-08T10:36:00.227Z,18.03
2023-02-08T10:38:44.099Z,19.93
2023-02-08T10:41:19.604Z,18.10
2023-02-08T10:43:50.834Z,19.17
2023-02-08T10:46:26.506Z,18.30
2023-02-08T10:49:03.902Z,19.90
2023-02-08T10:51:31.885Z,20.53
2023-02-08T10:53:59.590Z,18.93
2023-02-08T10:56:45.687Z,19.83
2023-02-08T10:59:23.961Z,19.40
2023-02-08T11:01:52.059Z,20.53
2023-02-08T11:04:21.482Z,19.73
2023-02-08T11:06:50.171Z,20.23
2023-02-08T11:09:22.869Z,19.50
2023-02-08T11:11:52.585Z,18.83
2023-02-08T11:14:21.686Z,19.17
2023-02-08T11:16:53.013Z,19.13
2023-02-08T11:19:35.358Z,18.33
2023-02-08T11:22:05.722Z,18.83
2023-02-08T11:24:40.029Z,17.83
2023-02-08T11:27:18.557Z,20.10
2023-02-08T11:29:46.095Z,18.27
2023-02-08T11:32:18.418Z,18.87
2023-02-08T11:34:47.429Z,20.40
2023-02-08T11:37:16.976Z,20.07
2023-02-08T11:39:49.530Z,18.50
2023-02-08T11:42:21.093Z,18.50
2023-02-08T11:44:49.110Z,18.20
2023-02-08T11:47:20.525Z,18.10
2023-02-08T11:49:54.949Z,17.40
2023-02-08T11:52:25.430Z,17.37
2023-02-08T11:54:53.580Z,17.43
2023-02-08T11:57:23.478Z,15.93
2023-02-08T11:59:53.060Z,15.90
2023-02-08T12:02:32.588Z,16.97
2023-02-08T12:05:01.602Z,14.83
2023-02-08T12:07:41.726Z,13.53
2023-02-08T12:10:29.140Z,14.77
2023-02-08T12:13:07.590Z,14.83
2023-02-08T12:15:57.414Z,11.87
2023-02-08T12:18:59.341Z,11.50
2023-02-08T12:21:31.714Z,11.23
2023-02-08T12:24:04.438Z,9.90
2023-02-08T12:26:43.089Z,10.30
2023-02-08T12:29:45.737Z,8.67
2023-02-08T12:32:35.842Z,9.73
2023-02-08T12:35:29.520Z,9.53
2023-02-08T12:38:29.611Z,10.40
2023-02-08T12:41:04.006Z,10.50
2023-02-08T12:43:42.369Z,10.13
2023-02-08T12:46:30.371Z,9.13
2023-02-08T12:49:15.784Z,9.90
2023-02-08T12:51:49.375Z,9.87
2023-02-08T12:54:25.717Z,9.47
2023-02-08T12:57:02.027Z,9.10
2023-02-08T12:59:34.280Z,9.53
2023-02-08T13:02:04.491Z,8.83
2023-02-08T13:04:34.212Z,8.90
2023-02-08T13:07:04.606Z,9.47
2023-02-08T13:09:45.349Z,9.67
2023-02-08T13:12:15.970Z,10.30
2023-02-08T13:14:47.087Z,9.87
2023-02-08T13:17:19.475Z,9.93
2023-02-08T13:20:00.505Z,9.60
2023-02-08T13:22:29.965Z,8.97
2023-02-08T13:25:06.935Z,9.47
2023-02-08T13:27:35.572Z,9.13
2023-02-08T13:30:03.562Z,8.60
2023-02-08T13:32:33.284Z,8.93
2023-02-08T13:35:02.633Z,7.97
2023-02-08T13:37:32.667Z,7.53
2023-02-08T13:40:05.243Z,8.10
2023-02-08T13:42:36.999Z,9.33
2023-02-08T13:45:05.980Z,8.63
2023-02-08T13:47:35.766Z,10.23
2023-02-08T13:50:07.483Z,9.57
2023-02-08T13:52:51.768Z,9.63
2023-02-08T13:55:55.717Z,10.50
2023-02-08T13:58:38.423Z,9.90
2023-02-08T14:01:21.822Z,11.20
2023-02-08T14:04:32.909Z,10.27
2023-02-08T14:07:06.155Z,9.70
2023-02-08T14:09:45.612Z,10.00
2023-02-08T14:12:20.458Z,9.37
2023-02-08T14:15:23.421Z,9.30
2023-02-08T14:17:54.944Z,10.17
2023-02-08T14:20:28.934Z,9.97
2023-02-08T14:22:58.083Z,10.20
2023-02-08T14:25:27.812Z,11.48
2023-02-08T14:27:57.076Z,10.80
2023-02-08T14:30:28.522Z,12.13
2023-02-08T14:33:12.208Z,12.87
2023-02-08T14:35:42.561Z,12.73
2023-02-08T14:38:50.474Z,11.80
2023-02-08T14:41:44.030Z,10.77
2023-02-08T14:44:54.435Z,12.17
2023-02-08T14:47:55.354Z,10.53
2023-02-08T14:50:29.026Z,12.10
2023-02-08T14:53:01.934Z,13.10
2023-02-08T14:55:33.320Z,12.90
2023-02-08T14:58:02.656Z,12.43
2023-02-08T15:00:34.193Z,13.00
2023-02-08T15:03:05.727Z,11.97
2023-02-08T15:05:36.977Z,12.63
2023-02-08T15:08:05.131Z,13.70
2023-02-08T15:10:33.445Z,12.07
2023-02-08T15:13:03.849Z,13.50
2023-02-08T15:15:34.611Z,12.77
2023-02-08T15:18:04.356Z,14.67
2023-02-08T15:20:33.437Z,12.70
2023-02-08T15:23:03.124Z,14.20
2023-02-08T15:25:32.172Z,13.83
2023-02-08T15:28:01.470Z,13.37
2023-02-08T15:30:33.209Z,14.37
2023-02-08T15:33:01.027Z,15.50
2023-02-08T15:35:32.984Z,13.33
2023-02-08T15:38:00.678Z,14.33
2023-02-08T15:40:30.229Z,14.10
2023-02-08T15:43:04.696Z,14.13
2023-02-08T15:45:32.383Z,14.60
2023-02-08T15:48:00.587Z,17.23
2023-02-08T15:50:30.360Z,13.80
2023-02-08T15:53:00.222Z,14.57
2023-02-08T15:55:31.952Z,14.27
2023-02-08T15:58:03.374Z,14.90
2023-02-08T16:00:33.213Z,15.10
2023-02-08T16:03:05.702Z,14.90
2023-02-08T16:05:35.345Z,16.57
2023-02-08T16:08:04.080Z,14.77
2023-02-08T16:10:34.753Z,16.50
2023-02-08T16:13:04.657Z,15.40
2023-02-08T16:15:41.088Z,16.53
2023-02-08T16:18:32.964Z,15.90
2023-02-08T16:21:03.308Z,15.20
2023-02-08T16:23:33.021Z,15.97
2023-02-08T16:26:12.693Z,15.87
2023-02-08T16:28:40.365Z,16.50
2023-02-08T16:31:08.931Z,14.50
2023-02-08T16:33:39.482Z,15.70
2023-02-08T16:36:08.532Z,15.57
2023-02-08T16:38:36.182Z,16.27
2023-02-08T16:41:12.863Z,14.73
2023-02-08T16:43:43.720Z,16.00
2023-02-08T16:46:24.608Z,16.53
2023-02-08T16:48:54.499Z,15.90
2023-02-08T16:51:25.312Z,15.97
2023-02-08T16:53:56.368Z,16.97
2023-02-08T16:56:24.564Z,20.37
2023-02-08T16:58:52.096Z,17.33
2023-02-08T17:01:21.078Z,17.70
2023-02-08T17:03:50.127Z,18.37
2023-02-08T17:06:24.785Z,16.97
2023-02-08T17:08:52.333Z,17.13
2023-02-08T17:11:19.880Z,15.57
2023-02-08T17:13:47.473Z,16.43
2023-02-08T17:16:19.412Z,17.33
2023-02-08T17:18:47.192Z,15.83
2023-02-08T17:21:14.942Z,17.40
2023-02-08T17:23:44.512Z,19.30
2023-02-08T17:26:14.964Z,16.77
2023-02-08T17:28:42.949Z,16.87
2023-02-08T17:31:12.142Z,16.63
2023-02-08T17:33:40.889Z,15.73
2023-02-08T17:36:09.153Z,16.87
2023-02-08T17:38:39.040Z,15.43
2023-02-08T17:41:08.209Z,16.20
2023-02-08T17:43:37.150Z,18.50
2023-02-08T17:46:09.918Z,20.10
2023-02-08T17:48:37.463Z,23.00
2023-02-08T17:51:09.734Z,18.37
2023-02-08T17:53:40.695Z,17.40
2023-02-08T17:56:11.382Z,16.30
2023-02-08T17:58:38.958Z,16.33
2023-02-08T18:01:06.994Z,14.80
2023-02-08T18:03:34.695Z,16.67
2023-02-08T18:06:03.610Z,16.27
2023-02-08T18:08:31.143Z,14.57
2023-02-08T18:11:04.317Z,15.80
2023-02-08T18:13:33.441Z,17.30
2023-02-08T18:16:07.801Z,19.70
2023-02-08T18:18:35.927Z,16.83
2023-02-08T18:21:03.546Z,18.27
2023-02-08T18:23:31.165Z,16.77
2023-02-08T18:26:05.245Z,15.57
2023-02-08T18:28:34.668Z,16.30
2023-02-08T18:31:03.368Z,16.70
2023-02-08T18:33:31.955Z,13.83
2023-02-08T18:35:59.824Z,14.67
2023-02-08T18:38:28.038Z,15.30
2023-02-08T18:40:55.678Z,15.27
2023-02-08T18:43:23.408Z,14.63
2023-02-08T18:46:03.800Z,15.57
2023-02-08T18:48:31.757Z,16.53
2023-02-08T18:51:00.675Z,16.03
2023-02-08T18:53:28.725Z,27.27
2023-02-08T18:55:57.286Z,18.13
2023-02-08T18:58:25.457Z,14.03
2023-02-08T19:00:53.582Z,14.63
2023-02-08T19:03:23.439Z,14.53
2023-02-08T19:05:51.051Z,14.63
2023-02-08T19:08:18.675Z,13.40
2023-02-08T19:10:46.322Z,13.87
2023-02-08T19:13:13.948Z,15.83
2023-02-08T19:15:42.502Z,16.67
2023-02-08T19:18:10.321Z,13.57
2023-02-08T19:20:39.621Z,14.57
2023-02-08T19:23:07.495Z,14.03
2023-02-08T19:25:38.181Z,14.20
2023-02-08T19:28:06.358Z,14.30
2023-02-08T19:30:34.313Z,13.37
2023-02-08T19:33:02.004Z,14.57
2023-02-08T19:35:29.548Z,13.43
2023-02-08T19:37:58.404Z,12.00
2023-02-08T19:40:25.976Z,12.87
2023-02-08T19:42:53.485Z,13.70
2023-02-08T19:45:21.117Z,14.03
2023-02-08T19:47:51.706Z,12.70
2023-02-08T19:50:19.786Z,17.73
2023-02-08T19:52:47.299Z,12.77
2023-02-08T19:55:16.340Z,13.40
2023-02-08T19:57:43.849Z,13.07
2023-02-08T20:00:23.092Z,12.83
2023-02-08T20:02:51.277Z,13.37
2023-02-08T20:05:19.239Z,12.30
2023-02-08T20:07:46.758Z,12.77
2023-02-08T20:10:15.768Z,11.60
2023-02-08T20:12:43.287Z,11.80
2023-02-08T20:15:10.926Z,11.60
2023-02-08T20:17:38.687Z,12.63
2023-02-08T20:20:07.549Z,11.97
2023-02-08T20:22:35.067Z,10.77
2023-02-08T20:25:03.968Z,11.57
2023-02-08T20:27:32.872Z,11.23
2023-02-08T20:30:00.460Z,10.43
2023-02-08T20:32:28.727Z,9.77
2023-02-08T20:34:59.864Z,11.07
2023-02-08T20:37:27.540Z,9.73
2023-02-08T20:39:55.329Z,9.60
2023-02-08T20:42:22.866Z,9.03
2023-02-08T20:44:51.804Z,8.67
2023-02-08T20:47:21.690Z,8.97
2023-02-08T20:49:49.541Z,9.23
2023-02-08T20:52:17.550Z,9.97
2023-02-08T20:54:46.015Z,9.30
2023-02-08T20:57:15.183Z,8.50
2023-02-08T20:59:43.001Z,7.73
2023-02-08T21:02:16.763Z,8.27
2023-02-08T21:04:44.400Z,7.57
2023-02-08T21:07:11.913Z,8.33
2023-02-08T21:09:39.515Z,7.13
2023-02-08T21:12:07.251Z,8.07
2023-02-08T21:14:34.998Z,7.67
2023-02-08T21:17:02.583Z,8.07
2023-02-08T21:19:31.936Z,7.20
2023-02-08T21:22:01.616Z,8.33
2023-02-08T21:24:30.692Z,8.77
2023-02-08T21:26:58.836Z,9.37
2023-02-08T21:29:26.587Z,8.23
2023-02-08T21:31:56.240Z,8.37
2023-02-08T21:34:24.577Z,10.17
2023-02-08T21:36:53.511Z,9.53
2023-02-08T21:39:21.081Z,9.60
2023-02-08T21:41:49.187Z,9.53
2023-02-08T21:44:16.700Z,7.83
2023-02-08T21:46:44.255Z,9.57
2023-02-08T21:49:29.368Z,9.70
2023-02-08T21:52:15.929Z,9.30
2023-02-08T21:54:44.384Z,9.80
2023-02-08T21:57:15.363Z,10.27
2023-02-08T21:59:43.350Z,9.90
2023-02-08T22:02:15.355Z,10.60
2023-02-08T22:04:46.639Z,10.27
2023-02-08T22:07:16.066Z,10.67
2023-02-08T22:09:43.592Z,11.43
2023-02-08T22:12:14.409Z,12.60
2023-02-08T22:14:42.330Z,14.50
2023-02-08T22:17:10.118Z,15.20
2023-02-08T22:19:39.804Z,14.60
2023-02-08T22:22:07.990Z,13.07
2023-02-08T22:24:37.150Z,15.27
2023-02-08T22:27:04.740Z,13.27
2023-02-08T22:29:32.645Z,10.27
2023-02-08T22:32:01.066Z,8.83
2023-02-08T22:34:28.807Z,9.27
2023-02-08T22:36:56.343Z,9.07
2023-02-08T22:39:23.868Z,8.63
2023-02-08T22:41:52.769Z,8.87
2023-02-08T22:44:20.272Z,8.40
2023-02-08T22:46:48.603Z,8.67
2023-02-08T22:49:16.164Z,8.43
2023-02-08T22:51:43.669Z,9.07
2023-02-08T22:54:11.175Z,8.33
2023-02-08T22:56:38.678Z,9.20
2023-02-08T22:59:07.535Z,9.83
2023-02-08T23:01:35.377Z,9.87
2023-02-08T23:04:03.032Z,8.60
2023-02-08T23:06:30.569Z,8.37
2023-02-08T23:08:58.548Z,8.07
2023-02-08T23:11:26.064Z,8.13
2023-02-08T23:13:54.849Z,8.23
2023-02-08T23:16:23.905Z,8.50
2023-02-08T23:18:51.590Z,7.70
2023-02-08T23:21:20.706Z,9.20
2023-02-08T23:23:49.209Z,9.63
2023-02-08T23:26:18.737Z,9.33
2023-02-08T23:28:46.842Z,9.63
2023-02-08T23:31:15.317Z,11.00
2023-02-08T23:33:44.797Z,11.07
2023-02-08T23:36:14.201Z,10.87
2023-02-08T23:38:42.024Z,11.47
2023-02-08T23:41:12.023Z,11.77
2023-02-08T23:43:39.768Z,11.90
2023-02-08T23:46:08.099Z,11.70
2023-02-08T23:48:37.361Z,13.07
2023-02-08T23:51:08.156Z,12.87
2023-02-08T23:53:36.537Z,12.97
2023-02-08T23:56:06.829Z,10.63
2023-02-08T23:58:34.490Z,11.20
